Main page
METAR-TAF:

METAR-TAF

Airports :

Oil platform

P11-b, Netherlands

latitude: 52-21-36N, longitude: 3-20-30E, elevation: 24 m

Current weather observation

The report was made 26 minutes ago, at 07:25 UTC
Wind 14 kt from the Southwest
Temperature 17°C
Humidity 82%
Pressure 1003 hPa
Visibility 10 km or more
Few clouds at a height of 1400 ft
Scattered clouds at a height of 1900 ft

METAR: EHPG 180725Z AUTO 23014KT 9999 FEW014 SCT019 17/14 Q1003 W///H///

Time: 09:51 (07:51 UTC)


TAF: missing

Weather observations and forecasts of more than 4000 airports (METAR and TAF reports).

The available stations are represented by yellow and red dots on the map.

Hover mouse over dot to see the name of the station.

Then click to see weather observations and forecasts.

To change the map : click on the green buttons with a black cross to zoom in, on the green button with a dash to zoom out, or on the green arrows for adjacent maps.


METAR-TAF: